sensor_id;sensor_type;location;lat;lon;timestamp;P1;durP1;ratioP1;P2;durP2;ratioP2
40288;SDS011;28991;52.028;5.526;2023-08-30T00:00:19;0.40;;;0.40;;
40288;SDS011;28991;52.028;5.526;2023-08-30T00:02:48;0.50;;;0.50;;
40288;SDS011;28991;52.028;5.526;2023-08-30T00:05:13;0.50;;;0.50;;
40288;SDS011;28991;52.028;5.526;2023-08-30T00:07:39;0.60;;;0.60;;
40288;SDS011;28991;52.028;5.526;2023-08-30T00:10:06;0.55;;;0.50;;
40288;SDS011;28991;52.028;5.526;2023-08-30T00:12:32;0.38;;;0.38;;
40288;SDS011;28991;52.028;5.526;2023-08-30T00:14:59;0.73;;;0.50;;
40288;SDS011;28991;52.028;5.526;2023-08-30T00:17:24;0.55;;;0.55;;
40288;SDS011;28991;52.028;5.526;2023-08-30T00:19:50;0.40;;;0.40;;
40288;SDS011;28991;52.028;5.526;2023-08-30T00:22:17;0.50;;;0.50;;
40288;SDS011;28991;52.028;5.526;2023-08-30T00:24:43;0.60;;;0.60;;
40288;SDS011;28991;52.028;5.526;2023-08-30T00:27:10;0.50;;;0.50;;
40288;SDS011;28991;52.028;5.526;2023-08-30T00:29:35;0.47;;;0.43;;
40288;SDS011;28991;52.028;5.526;2023-08-30T00:32:01;0.57;;;0.57;;
40288;SDS011;28991;52.028;5.526;2023-08-30T00:34:27;0.50;;;0.50;;
40288;SDS011;28991;52.028;5.526;2023-08-30T00:36:52;0.98;;;0.63;;
40288;SDS011;28991;52.028;5.526;2023-08-30T00:39:18;0.68;;;0.60;;
40288;SDS011;28991;52.028;5.526;2023-08-30T00:41:43;0.50;;;0.50;;
40288;SDS011;28991;52.028;5.526;2023-08-30T00:44:09;0.70;;;0.70;;
40288;SDS011;28991;52.028;5.526;2023-08-30T00:46:35;0.90;;;0.50;;
40288;SDS011;28991;52.028;5.526;2023-08-30T00:49:01;0.50;;;0.50;;
40288;SDS011;28991;52.028;5.526;2023-08-30T00:51:28;0.40;;;0.40;;
40288;SDS011;28991;52.028;5.526;2023-08-30T00:53:54;0.50;;;0.50;;
40288;SDS011;28991;52.028;5.526;2023-08-30T00:56:20;0.40;;;0.40;;
40288;SDS011;28991;52.028;5.526;2023-08-30T00:58:49;0.57;;;0.57;;
40288;SDS011;28991;52.028;5.526;2023-08-30T01:01:15;0.82;;;0.50;;
40288;SDS011;28991;52.028;5.526;2023-08-30T01:03:42;0.50;;;0.50;;
40288;SDS011;28991;52.028;5.526;2023-08-30T01:06:07;0.57;;;0.57;;
40288;SDS011;28991;52.028;5.526;2023-08-30T01:08:34;0.60;;;0.60;;
40288;SDS011;28991;52.028;5.526;2023-08-30T01:13:54;0.60;;;0.60;;
40288;SDS011;28991;52.028;5.526;2023-08-30T01:16:29;0.57;;;0.57;;
40288;SDS011;28991;52.028;5.526;2023-08-30T01:18:56;0.50;;;0.50;;
40288;SDS011;28991;52.028;5.526;2023-08-30T01:21:30;0.57;;;0.52;;
40288;SDS011;28991;52.028;5.526;2023-08-30T01:24:14;0.35;;;0.35;;
40288;SDS011;28991;52.028;5.526;2023-08-30T01:29:31;0.47;;;0.40;;
40288;SDS011;28991;52.028;5.526;2023-08-30T01:31:58;0.70;;;0.50;;
40288;SDS011;28991;52.028;5.526;2023-08-30T01:34:24;0.60;;;0.60;;
40288;SDS011;28991;52.028;5.526;2023-08-30T01:36:50;0.40;;;0.40;;
40288;SDS011;28991;52.028;5.526;2023-08-30T01:39:16;0.40;;;0.40;;
40288;SDS011;28991;52.028;5.526;2023-08-30T01:41:43;0.60;;;0.60;;
40288;SDS011;28991;52.028;5.526;2023-08-30T01:44:09;0.57;;;0.57;;
40288;SDS011;28991;52.028;5.526;2023-08-30T01:46:36;0.50;;;0.50;;
40288;SDS011;28991;52.028;5.526;2023-08-30T01:49:03;0.57;;;0.57;;
40288;SDS011;28991;52.028;5.526;2023-08-30T01:51:31;0.40;;;0.40;;
40288;SDS011;28991;52.028;5.526;2023-08-30T01:53:58;0.52;;;0.52;;
40288;SDS011;28991;52.028;5.526;2023-08-30T01:56:23;0.60;;;0.60;;
40288;SDS011;28991;52.028;5.526;2023-08-30T01:58:49;0.52;;;0.52;;
40288;SDS011;28991;52.028;5.526;2023-08-30T02:01:15;1.00;;;0.75;;
40288;SDS011;28991;52.028;5.526;2023-08-30T02:03:43;0.50;;;0.50;;
40288;SDS011;28991;52.028;5.526;2023-08-30T02:06:24;0.55;;;0.50;;
40288;SDS011;28991;52.028;5.526;2023-08-30T02:09:03;0.50;;;0.50;;
40288;SDS011;28991;52.028;5.526;2023-08-30T02:11:33;2.38;;;0.70;;
40288;SDS011;28991;52.028;5.526;2023-08-30T02:14:00;0.45;;;0.43;;
40288;SDS011;28991;52.028;5.526;2023-08-30T02:16:28;0.60;;;0.57;;
40288;SDS011;28991;52.028;5.526;2023-08-30T02:18:54;0.47;;;0.47;;
40288;SDS011;28991;52.028;5.526;2023-08-30T02:21:20;0.63;;;0.63;;
40288;SDS011;28991;52.028;5.526;2023-08-30T02:23:50;0.80;;;0.60;;
40288;SDS011;28991;52.028;5.526;2023-08-30T02:26:18;0.50;;;0.50;;
40288;SDS011;28991;52.028;5.526;2023-08-30T02:28:44;0.40;;;0.40;;
40288;SDS011;28991;52.028;5.526;2023-08-30T02:31:10;0.40;;;0.40;;
40288;SDS011;28991;52.028;5.526;2023-08-30T02:33:35;0.80;;;0.70;;
40288;SDS011;28991;52.028;5.526;2023-08-30T02:36:02;0.50;;;0.50;;
40288;SDS011;28991;52.028;5.526;2023-08-30T02:38:28;0.52;;;0.50;;
40288;SDS011;28991;52.028;5.526;2023-08-30T02:40:54;0.43;;;0.43;;
40288;SDS011;28991;52.028;5.526;2023-08-30T02:43:19;0.50;;;0.50;;
40288;SDS011;28991;52.028;5.526;2023-08-30T02:45:45;0.50;;;0.50;;
40288;SDS011;28991;52.028;5.526;2023-08-30T02:48:10;0.40;;;0.40;;
40288;SDS011;28991;52.028;5.526;2023-08-30T02:50:36;0.60;;;0.57;;
40288;SDS011;28991;52.028;5.526;2023-08-30T02:53:02;0.50;;;0.50;;
40288;SDS011;28991;52.028;5.526;2023-08-30T02:55:29;0.65;;;0.60;;
40288;SDS011;28991;52.028;5.526;2023-08-30T02:57:55;0.60;;;0.50;;
40288;SDS011;28991;52.028;5.526;2023-08-30T03:00:21;0.50;;;0.50;;
40288;SDS011;28991;52.028;5.526;2023-08-30T03:02:46;0.63;;;0.52;;
40288;SDS011;28991;52.028;5.526;2023-08-30T03:05:13;0.55;;;0.50;;
40288;SDS011;28991;52.028;5.526;2023-08-30T03:07:39;0.75;;;0.60;;
40288;SDS011;28991;52.028;5.526;2023-08-30T03:10:05;0.40;;;0.40;;
40288;SDS011;28991;52.028;5.526;2023-08-30T03:12:31;0.63;;;0.55;;
40288;SDS011;28991;52.028;5.526;2023-08-30T03:14:57;0.50;;;0.50;;
40288;SDS011;28991;52.028;5.526;2023-08-30T03:17:23;0.50;;;0.50;;
40288;SDS011;28991;52.028;5.526;2023-08-30T03:19:51;0.45;;;0.45;;
40288;SDS011;28991;52.028;5.526;2023-08-30T03:22:18;1.27;;;0.40;;
40288;SDS011;28991;52.028;5.526;2023-08-30T03:24:43;0.60;;;0.60;;
40288;SDS011;28991;52.028;5.526;2023-08-30T03:27:09;0.30;;;0.30;;
40288;SDS011;28991;52.028;5.526;2023-08-30T03:29:35;0.43;;;0.40;;
40288;SDS011;28991;52.028;5.526;2023-08-30T03:32:00;0.52;;;0.52;;
40288;SDS011;28991;52.028;5.526;2023-08-30T03:34:26;0.50;;;0.50;;
40288;SDS011;28991;52.028;5.526;2023-08-30T03:36:51;0.50;;;0.50;;
40288;SDS011;28991;52.028;5.526;2023-08-30T03:39:19;0.50;;;0.50;;
40288;SDS011;28991;52.028;5.526;2023-08-30T03:41:45;0.52;;;0.52;;
40288;SDS011;28991;52.028;5.526;2023-08-30T03:44:11;0.88;;;0.60;;
40288;SDS011;28991;52.028;5.526;2023-08-30T03:46:37;0.40;;;0.40;;
40288;SDS011;28991;52.028;5.526;2023-08-30T03:49:02;0.50;;;0.50;;
40288;SDS011;28991;52.028;5.526;2023-08-30T03:51:28;1.30;;;0.65;;
40288;SDS011;28991;52.028;5.526;2023-08-30T03:53:54;0.40;;;0.40;;
40288;SDS011;28991;52.028;5.526;2023-08-30T03:56:21;0.40;;;0.40;;
40288;SDS011;28991;52.028;5.526;2023-08-30T03:58:47;0.60;;;0.60;;
40288;SDS011;28991;52.028;5.526;2023-08-30T04:01:13;0.60;;;0.60;;
40288;SDS011;28991;52.028;5.526;2023-08-30T04:03:38;0.50;;;0.50;;
40288;SDS011;28991;52.028;5.526;2023-08-30T04:06:04;0.60;;;0.50;;
40288;SDS011;28991;52.028;5.526;2023-08-30T04:08:30;0.40;;;0.40;;
40288;SDS011;28991;52.028;5.526;2023-08-30T04:10:56;0.60;;;0.60;;
40288;SDS011;28991;52.028;5.526;2023-08-30T04:13:22;0.43;;;0.43;;
40288;SDS011;28991;52.028;5.526;2023-08-30T04:15:47;0.70;;;0.70;;
40288;SDS011;28991;52.028;5.526;2023-08-30T04:18:13;0.60;;;0.55;;
40288;SDS011;28991;52.028;5.526;2023-08-30T04:20:42;0.57;;;0.57;;
40288;SDS011;28991;52.028;5.526;2023-08-30T04:23:09;0.50;;;0.50;;
40288;SDS011;28991;52.028;5.526;2023-08-30T04:25:35;0.50;;;0.40;;
40288;SDS011;28991;52.028;5.526;2023-08-30T04:28:01;0.47;;;0.47;;
40288;SDS011;28991;52.028;5.526;2023-08-30T04:30:27;0.50;;;0.50;;
40288;SDS011;28991;52.028;5.526;2023-08-30T04:32:53;0.35;;;0.35;;
40288;SDS011;28991;52.028;5.526;2023-08-30T04:35:18;0.60;;;0.60;;
40288;SDS011;28991;52.028;5.526;2023-08-30T04:37:44;0.60;;;0.60;;
40288;SDS011;28991;52.028;5.526;2023-08-30T04:40:10;0.50;;;0.50;;
40288;SDS011;28991;52.028;5.526;2023-08-30T04:42:36;0.60;;;0.60;;
40288;SDS011;28991;52.028;5.526;2023-08-30T04:45:02;0.73;;;0.55;;
40288;SDS011;28991;52.028;5.526;2023-08-30T04:47:29;0.68;;;0.68;;
40288;SDS011;28991;52.028;5.526;2023-08-30T04:49:55;0.40;;;0.40;;
40288;SDS011;28991;52.028;5.526;2023-08-30T04:52:21;0.52;;;0.52;;
40288;SDS011;28991;52.028;5.526;2023-08-30T04:54:47;0.60;;;0.60;;
40288;SDS011;28991;52.028;5.526;2023-08-30T04:57:13;0.47;;;0.47;;
40288;SDS011;28991;52.028;5.526;2023-08-30T04:59:41;0.50;;;0.50;;
40288;SDS011;28991;52.028;5.526;2023-08-30T05:02:07;0.73;;;0.70;;
40288;SDS011;28991;52.028;5.526;2023-08-30T05:04:32;1.13;;;0.70;;
40288;SDS011;28991;52.028;5.526;2023-08-30T05:06:58;4.15;;;3.60;;
40288;SDS011;28991;52.028;5.526;2023-08-30T05:09:24;5.93;;;4.40;;
40288;SDS011;28991;52.028;5.526;2023-08-30T05:11:50;7.22;;;5.68;;
40288;SDS011;28991;52.028;5.526;2023-08-30T05:14:16;9.60;;;5.88;;
40288;SDS011;28991;52.028;5.526;2023-08-30T05:16:42;10.32;;;6.03;;
40288;SDS011;28991;52.028;5.526;2023-08-30T05:19:07;8.38;;;5.82;;
40288;SDS011;28991;52.028;5.526;2023-08-30T05:21:33;6.40;;;5.43;;
40288;SDS011;28991;52.028;5.526;2023-08-30T05:23:58;9.10;;;5.50;;
40288;SDS011;28991;52.028;5.526;2023-08-30T05:26:24;5.38;;;3.88;;
40288;SDS011;28991;52.028;5.526;2023-08-30T05:28:50;6.40;;;4.53;;
40288;SDS011;28991;52.028;5.526;2023-08-30T05:31:15;5.40;;;4.15;;
40288;SDS011;28991;52.028;5.526;2023-08-30T05:33:41;4.97;;;3.53;;
40288;SDS011;28991;52.028;5.526;2023-08-30T05:36:06;6.20;;;3.97;;
40288;SDS011;28991;52.028;5.526;2023-08-30T05:38:32;5.78;;;3.42;;
40288;SDS011;28991;52.028;5.526;2023-08-30T05:40:57;4.47;;;3.25;;
40288;SDS011;28991;52.028;5.526;2023-08-30T05:43:23;4.40;;;2.92;;
40288;SDS011;28991;52.028;5.526;2023-08-30T05:45:49;5.10;;;3.33;;
40288;SDS011;28991;52.028;5.526;2023-08-30T05:48:14;2.92;;;2.60;;
40288;SDS011;28991;52.028;5.526;2023-08-30T05:50:40;2.88;;;2.40;;
40288;SDS011;28991;52.028;5.526;2023-08-30T05:53:05;2.75;;;2.45;;
40288;SDS011;28991;52.028;5.526;2023-08-30T05:55:31;3.60;;;2.33;;
40288;SDS011;28991;52.028;5.526;2023-08-30T05:57:57;2.70;;;2.22;;
40288;SDS011;28991;52.028;5.526;2023-08-30T06:00:22;2.80;;;2.20;;
40288;SDS011;28991;52.028;5.526;2023-08-30T06:02:48;2.67;;;1.80;;
40288;SDS011;28991;52.028;5.526;2023-08-30T06:05:16;2.25;;;2.00;;
40288;SDS011;28991;52.028;5.526;2023-08-30T06:07:42;3.30;;;1.73;;
40288;SDS011;28991;52.028;5.526;2023-08-30T06:10:07;3.33;;;1.88;;
40288;SDS011;28991;52.028;5.526;2023-08-30T06:12:33;2.38;;;1.50;;
40288;SDS011;28991;52.028;5.526;2023-08-30T06:14:59;2.47;;;1.80;;
40288;SDS011;28991;52.028;5.526;2023-08-30T06:17:24;3.17;;;1.67;;
40288;SDS011;28991;52.028;5.526;2023-08-30T06:19:50;4.15;;;1.98;;
40288;SDS011;28991;52.028;5.526;2023-08-30T06:22:16;3.28;;;1.70;;
40288;SDS011;28991;52.028;5.526;2023-08-30T06:24:41;4.88;;;1.85;;
40288;SDS011;28991;52.028;5.526;2023-08-30T06:27:07;2.58;;;1.70;;
40288;SDS011;28991;52.028;5.526;2023-08-30T06:29:32;3.45;;;1.80;;
40288;SDS011;28991;52.028;5.526;2023-08-30T06:31:58;3.03;;;1.90;;
40288;SDS011;28991;52.028;5.526;2023-08-30T06:34:24;2.08;;;1.85;;
40288;SDS011;28991;52.028;5.526;2023-08-30T06:36:49;3.63;;;2.10;;
40288;SDS011;28991;52.028;5.526;2023-08-30T06:39:18;4.03;;;2.08;;
40288;SDS011;28991;52.028;5.526;2023-08-30T06:41:43;2.80;;;2.15;;
40288;SDS011;28991;52.028;5.526;2023-08-30T06:44:09;3.05;;;2.40;;
40288;SDS011;28991;52.028;5.526;2023-08-30T06:46:35;5.50;;;2.00;;
40288;SDS011;28991;52.028;5.526;2023-08-30T06:49:02;2.33;;;2.00;;
40288;SDS011;28991;52.028;5.526;2023-08-30T06:51:28;2.25;;;1.73;;
40288;SDS011;28991;52.028;5.526;2023-08-30T06:53:54;2.55;;;2.35;;
40288;SDS011;28991;52.028;5.526;2023-08-30T06:56:20;3.97;;;1.73;;
40288;SDS011;28991;52.028;5.526;2023-08-30T06:58:46;4.43;;;1.90;;
40288;SDS011;28991;52.028;5.526;2023-08-30T07:01:11;5.85;;;2.22;;
40288;SDS011;28991;52.028;5.526;2023-08-30T07:03:37;6.65;;;2.53;;
40288;SDS011;28991;52.028;5.526;2023-08-30T07:06:05;7.32;;;2.33;;
40288;SDS011;28991;52.028;5.526;2023-08-30T07:08:30;3.33;;;1.92;;
40288;SDS011;28991;52.028;5.526;2023-08-30T07:10:57;4.57;;;2.13;;
40288;SDS011;28991;52.028;5.526;2023-08-30T07:13:23;4.43;;;2.08;;
40288;SDS011;28991;52.028;5.526;2023-08-30T07:15:48;3.13;;;2.28;;
40288;SDS011;28991;52.028;5.526;2023-08-30T07:18:14;4.63;;;1.85;;
40288;SDS011;28991;52.028;5.526;2023-08-30T07:20:39;4.25;;;1.75;;
40288;SDS011;28991;52.028;5.526;2023-08-30T07:23:05;5.80;;;1.90;;
40288;SDS011;28991;52.028;5.526;2023-08-30T07:25:31;2.63;;;2.22;;
40288;SDS011;28991;52.028;5.526;2023-08-30T07:27:58;2.95;;;2.03;;
40288;SDS011;28991;52.028;5.526;2023-08-30T07:30:24;3.05;;;1.80;;
40288;SDS011;28991;52.028;5.526;2023-08-30T07:32:50;2.17;;;1.50;;
40288;SDS011;28991;52.028;5.526;2023-08-30T07:35:16;9.80;;;2.40;;
40288;SDS011;28991;52.028;5.526;2023-08-30T07:37:41;3.35;;;2.10;;
40288;SDS011;28991;52.028;5.526;2023-08-30T07:40:07;4.18;;;2.33;;
40288;SDS011;28991;52.028;5.526;2023-08-30T07:42:33;7.18;;;2.60;;
40288;SDS011;28991;52.028;5.526;2023-08-30T07:44:59;3.38;;;2.25;;
40288;SDS011;28991;52.028;5.526;2023-08-30T07:47:25;5.35;;;2.88;;
40288;SDS011;28991;52.028;5.526;2023-08-30T07:49:50;5.40;;;2.90;;
40288;SDS011;28991;52.028;5.526;2023-08-30T07:52:16;3.50;;;2.78;;
40288;SDS011;28991;52.028;5.526;2023-08-30T07:54:41;3.15;;;2.40;;
40288;SDS011;28991;52.028;5.526;2023-08-30T07:57:07;3.20;;;2.40;;
40288;SDS011;28991;52.028;5.526;2023-08-30T07:59:33;2.17;;;1.77;;
40288;SDS011;28991;52.028;5.526;2023-08-30T08:02:01;3.67;;;1.98;;
40288;SDS011;28991;52.028;5.526;2023-08-30T08:04:26;2.88;;;1.90;;
40288;SDS011;28991;52.028;5.526;2023-08-30T08:06:52;4.72;;;2.42;;
40288;SDS011;28991;52.028;5.526;2023-08-30T08:09:18;2.63;;;2.00;;
40288;SDS011;28991;52.028;5.526;2023-08-30T08:11:43;4.70;;;2.47;;
40288;SDS011;28991;52.028;5.526;2023-08-30T08:14:09;3.22;;;2.03;;
40288;SDS011;28991;52.028;5.526;2023-08-30T08:16:36;4.10;;;2.53;;
40288;SDS011;28991;52.028;5.526;2023-08-30T08:19:01;8.32;;;2.00;;
40288;SDS011;28991;52.028;5.526;2023-08-30T08:21:27;2.72;;;1.95;;
40288;SDS011;28991;52.028;5.526;2023-08-30T08:23:53;4.15;;;2.08;;
40288;SDS011;28991;52.028;5.526;2023-08-30T08:26:19;5.55;;;2.08;;
40288;SDS011;28991;52.028;5.526;2023-08-30T08:28:44;2.88;;;1.73;;
40288;SDS011;28991;52.028;5.526;2023-08-30T08:31:10;2.17;;;1.90;;
40288;SDS011;28991;52.028;5.526;2023-08-30T08:33:36;5.05;;;2.30;;
40288;SDS011;28991;52.028;5.526;2023-08-30T08:36:01;5.50;;;2.08;;
40288;SDS011;28991;52.028;5.526;2023-08-30T08:38:27;4.70;;;2.40;;
40288;SDS011;28991;52.028;5.526;2023-08-30T08:41:02;2.88;;;1.52;;
40288;SDS011;28991;52.028;5.526;2023-08-30T08:43:31;2.17;;;1.70;;
40288;SDS011;28991;52.028;5.526;2023-08-30T08:45:59;4.80;;;1.70;;
40288;SDS011;28991;52.028;5.526;2023-08-30T08:48:25;11.75;;;5.63;;
40288;SDS011;28991;52.028;5.526;2023-08-30T08:50:56;21.47;;;9.50;;
40288;SDS011;28991;52.028;5.526;2023-08-30T08:53:22;37.05;;;13.10;;
40288;SDS011;28991;52.028;5.526;2023-08-30T08:55:48;28.90;;;10.80;;
40288;SDS011;28991;52.028;5.526;2023-08-30T08:58:14;21.27;;;9.07;;
40288;SDS011;28991;52.028;5.526;2023-08-30T09:00:41;19.73;;;8.93;;
40288;SDS011;28991;52.028;5.526;2023-08-30T09:03:08;16.88;;;6.88;;
40288;SDS011;28991;52.028;5.526;2023-08-30T09:05:34;18.92;;;6.32;;
40288;SDS011;28991;52.028;5.526;2023-08-30T09:08:04;10.27;;;4.90;;
40288;SDS011;28991;52.028;5.526;2023-08-30T09:10:34;5.30;;;3.58;;
40288;SDS011;28991;52.028;5.526;2023-08-30T09:13:01;7.03;;;3.40;;
40288;SDS011;28991;52.028;5.526;2023-08-30T09:15:33;8.75;;;3.28;;
40288;SDS011;28991;52.028;5.526;2023-08-30T09:17:59;4.53;;;2.30;;
40288;SDS011;28991;52.028;5.526;2023-08-30T09:20:25;3.72;;;2.40;;
40288;SDS011;28991;52.028;5.526;2023-08-30T09:22:51;4.40;;;2.33;;
40288;SDS011;28991;52.028;5.526;2023-08-30T09:25:23;3.72;;;1.73;;
40288;SDS011;28991;52.028;5.526;2023-08-30T09:27:50;4.93;;;2.08;;
40288;SDS011;28991;52.028;5.526;2023-08-30T09:30:22;1.80;;;1.55;;
40288;SDS011;28991;52.028;5.526;2023-08-30T09:32:48;2.88;;;1.30;;
40288;SDS011;28991;52.028;5.526;2023-08-30T09:35:14;3.80;;;1.60;;
40288;SDS011;28991;52.028;5.526;2023-08-30T09:37:39;4.22;;;1.42;;
40288;SDS011;28991;52.028;5.526;2023-08-30T09:40:05;2.22;;;1.60;;
40288;SDS011;28991;52.028;5.526;2023-08-30T09:42:31;4.60;;;1.70;;
40288;SDS011;28991;52.028;5.526;2023-08-30T09:44:57;3.30;;;1.77;;
40288;SDS011;28991;52.028;5.526;2023-08-30T09:47:26;4.07;;;1.77;;
40288;SDS011;28991;52.028;5.526;2023-08-30T09:49:53;1.73;;;1.52;;
40288;SDS011;28991;52.028;5.526;2023-08-30T09:52:20;2.75;;;1.40;;
40288;SDS011;28991;52.028;5.526;2023-08-30T09:54:48;2.17;;;1.77;;
40288;SDS011;28991;52.028;5.526;2023-08-30T09:57:16;2.17;;;1.67;;
40288;SDS011;28991;52.028;5.526;2023-08-30T09:59:42;2.97;;;1.55;;
40288;SDS011;28991;52.028;5.526;2023-08-30T10:02:08;3.15;;;1.40;;
40288;SDS011;28991;52.028;5.526;2023-08-30T10:04:35;1.92;;;1.63;;
40288;SDS011;28991;52.028;5.526;2023-08-30T10:07:04;2.65;;;1.77;;
40288;SDS011;28991;52.028;5.526;2023-08-30T10:09:32;2.75;;;1.70;;
40288;SDS011;28991;52.028;5.526;2023-08-30T10:11:58;1.70;;;1.58;;
40288;SDS011;28991;52.028;5.526;2023-08-30T10:14:27;1.30;;;1.20;;
40288;SDS011;28991;52.028;5.526;2023-08-30T10:16:57;3.90;;;1.30;;
40288;SDS011;28991;52.028;5.526;2023-08-30T10:19:28;1.50;;;1.15;;
40288;SDS011;28991;52.028;5.526;2023-08-30T10:22:04;1.00;;;0.70;;
40288;SDS011;28991;52.028;5.526;2023-08-30T10:25:00;2.63;;;1.00;;
40288;SDS011;28991;52.028;5.526;2023-08-30T10:27:30;2.35;;;1.20;;
40288;SDS011;28991;52.028;5.526;2023-08-30T10:29:58;4.75;;;1.42;;
40288;SDS011;28991;52.028;5.526;2023-08-30T10:32:28;2.00;;;1.20;;
40288;SDS011;28991;52.028;5.526;2023-08-30T10:34:55;4.10;;;1.48;;
40288;SDS011;28991;52.028;5.526;2023-08-30T10:37:23;7.00;;;1.40;;
40288;SDS011;28991;52.028;5.526;2023-08-30T10:39:51;5.03;;;1.75;;
40288;SDS011;28991;52.028;5.526;2023-08-30T10:42:21;2.55;;;1.35;;
40288;SDS011;28991;52.028;5.526;2023-08-30T10:47:29;1.52;;;1.10;;
40288;SDS011;28991;52.028;5.526;2023-08-30T10:49:59;4.07;;;1.20;;
40288;SDS011;28991;52.028;5.526;2023-08-30T10:52:26;1.05;;;1.00;;
40288;SDS011;28991;52.028;5.526;2023-08-30T10:54:53;1.73;;;1.00;;
40288;SDS011;28991;52.028;5.526;2023-08-30T10:57:29;3.00;;;1.45;;
40288;SDS011;28991;52.028;5.526;2023-08-30T11:00:07;1.35;;;1.20;;
40288;SDS011;28991;52.028;5.526;2023-08-30T11:02:35;1.48;;;1.30;;
40288;SDS011;28991;52.028;5.526;2023-08-30T11:05:02;1.20;;;1.10;;
40288;SDS011;28991;52.028;5.526;2023-08-30T11:07:30;1.17;;;1.08;;
40288;SDS011;28991;52.028;5.526;2023-08-30T11:09:56;1.50;;;0.75;;
40288;SDS011;28991;52.028;5.526;2023-08-30T11:12:22;0.98;;;0.90;;
40288;SDS011;28991;52.028;5.526;2023-08-30T11:14:48;1.35;;;1.05;;
40288;SDS011;28991;52.028;5.526;2023-08-30T11:17:18;2.33;;;1.10;;
40288;SDS011;28991;52.028;5.526;2023-08-30T11:19:44;4.55;;;1.40;;
40288;SDS011;28991;52.028;5.526;2023-08-30T11:22:12;2.97;;;1.38;;
40288;SDS011;28991;52.028;5.526;2023-08-30T11:24:37;3.05;;;1.60;;
40288;SDS011;28991;52.028;5.526;2023-08-30T11:27:04;2.88;;;1.50;;
40288;SDS011;28991;52.028;5.526;2023-08-30T11:29:30;3.80;;;1.52;;
40288;SDS011;28991;52.028;5.526;2023-08-30T11:31:55;1.90;;;1.13;;
40288;SDS011;28991;52.028;5.526;2023-08-30T11:34:21;2.20;;;1.10;;
40288;SDS011;28991;52.028;5.526;2023-08-30T11:36:47;2.88;;;1.48;;
40288;SDS011;28991;52.028;5.526;2023-08-30T11:39:14;3.88;;;1.27;;
40288;SDS011;28991;52.028;5.526;2023-08-30T11:41:44;3.42;;;1.30;;
40288;SDS011;28991;52.028;5.526;2023-08-30T11:44:09;2.88;;;1.48;;
40288;SDS011;28991;52.028;5.526;2023-08-30T11:46:35;6.20;;;1.60;;
40288;SDS011;28991;52.028;5.526;2023-08-30T11:49:01;3.90;;;1.42;;
40288;SDS011;28991;52.028;5.526;2023-08-30T11:51:28;4.88;;;1.67;;
40288;SDS011;28991;52.028;5.526;2023-08-30T11:53:54;4.03;;;2.00;;
40288;SDS011;28991;52.028;5.526;2023-08-30T11:56:21;4.20;;;1.60;;
40288;SDS011;28991;52.028;5.526;2023-08-30T11:58:47;4.75;;;1.75;;
40288;SDS011;28991;52.028;5.526;2023-08-30T12:01:13;4.07;;;1.42;;
40288;SDS011;28991;52.028;5.526;2023-08-30T12:03:39;3.30;;;1.70;;
40288;SDS011;28991;52.028;5.526;2023-08-30T12:06:11;4.75;;;1.50;;
40288;SDS011;28991;52.028;5.526;2023-08-30T12:11:02;4.20;;;1.35;;
40288;SDS011;28991;52.028;5.526;2023-08-30T12:13:29;5.82;;;1.58;;
40288;SDS011;28991;52.028;5.526;2023-08-30T12:15:58;2.42;;;0.90;;
40288;SDS011;28991;52.028;5.526;2023-08-30T12:18:29;2.65;;;1.40;;
40288;SDS011;28991;52.028;5.526;2023-08-30T12:23:23;2.55;;;1.20;;
40288;SDS011;28991;52.028;5.526;2023-08-30T12:26:03;3.85;;;1.30;;
40288;SDS011;28991;52.028;5.526;2023-08-30T12:28:31;4.57;;;1.20;;
40288;SDS011;28991;52.028;5.526;2023-08-30T12:30:58;2.78;;;1.27;;
40288;SDS011;28991;52.028;5.526;2023-08-30T12:33:24;3.60;;;1.38;;
40288;SDS011;28991;52.028;5.526;2023-08-30T12:35:50;6.22;;;1.77;;
40288;SDS011;28991;52.028;5.526;2023-08-30T12:38:16;3.03;;;1.35;;
40288;SDS011;28991;52.028;5.526;2023-08-30T12:40:42;3.90;;;1.65;;
40288;SDS011;28991;52.028;5.526;2023-08-30T12:43:12;4.15;;;1.50;;
40288;SDS011;28991;52.028;5.526;2023-08-30T12:45:39;5.30;;;1.55;;
40288;SDS011;28991;52.028;5.526;2023-08-30T12:48:06;8.65;;;1.58;;
40288;SDS011;28991;52.028;5.526;2023-08-30T12:50:36;5.90;;;1.42;;
40288;SDS011;28991;52.028;5.526;2023-08-30T12:53:03;5.45;;;1.65;;
40288;SDS011;28991;52.028;5.526;2023-08-30T12:55:29;4.35;;;1.23;;
40288;SDS011;28991;52.028;5.526;2023-08-30T12:57:54;4.47;;;1.75;;
40288;SDS011;28991;52.028;5.526;2023-08-30T13:00:20;2.80;;;1.17;;
40288;SDS011;28991;52.028;5.526;2023-08-30T13:02:46;6.90;;;1.40;;
40288;SDS011;28991;52.028;5.526;2023-08-30T13:05:11;2.95;;;1.60;;
40288;SDS011;28991;52.028;5.526;2023-08-30T13:07:37;3.72;;;1.48;;
40288;SDS011;28991;52.028;5.526;2023-08-30T13:10:04;2.42;;;1.30;;
40288;SDS011;28991;52.028;5.526;2023-08-30T13:12:31;6.97;;;1.73;;
40288;SDS011;28991;52.028;5.526;2023-08-30T13:14:56;11.10;;;1.73;;
40288;SDS011;28991;52.028;5.526;2023-08-30T13:17:22;4.95;;;1.27;;
40288;SDS011;28991;52.028;5.526;2023-08-30T13:19:47;6.35;;;1.27;;
40288;SDS011;28991;52.028;5.526;2023-08-30T13:22:14;7.32;;;1.30;;
40288;SDS011;28991;52.028;5.526;2023-08-30T13:24:39;3.30;;;1.48;;
40288;SDS011;28991;52.028;5.526;2023-08-30T13:27:05;3.65;;;1.67;;
40288;SDS011;28991;52.028;5.526;2023-08-30T13:29:31;3.65;;;1.27;;
40288;SDS011;28991;52.028;5.526;2023-08-30T13:31:57;4.90;;;1.20;;
40288;SDS011;28991;52.028;5.526;2023-08-30T13:34:22;3.83;;;1.40;;
40288;SDS011;28991;52.028;5.526;2023-08-30T13:36:48;3.28;;;1.23;;
40288;SDS011;28991;52.028;5.526;2023-08-30T13:39:13;5.53;;;1.38;;
40288;SDS011;28991;52.028;5.526;2023-08-30T13:41:39;2.70;;;1.25;;
40288;SDS011;28991;52.028;5.526;2023-08-30T13:44:05;5.43;;;1.20;;
40288;SDS011;28991;52.028;5.526;2023-08-30T13:46:31;6.47;;;1.58;;
40288;SDS011;28991;52.028;5.526;2023-08-30T13:48:57;3.15;;;1.55;;
40288;SDS011;28991;52.028;5.526;2023-08-30T13:51:23;3.00;;;1.05;;
40288;SDS011;28991;52.028;5.526;2023-08-30T13:53:50;2.85;;;1.27;;
40288;SDS011;28991;52.028;5.526;2023-08-30T13:56:16;4.47;;;1.48;;
40288;SDS011;28991;52.028;5.526;2023-08-30T13:58:41;5.18;;;1.60;;
40288;SDS011;28991;52.028;5.526;2023-08-30T14:01:07;3.25;;;1.02;;
40288;SDS011;28991;52.028;5.526;2023-08-30T14:03:33;2.95;;;1.50;;
40288;SDS011;28991;52.028;5.526;2023-08-30T14:05:58;3.15;;;0.73;;
40288;SDS011;28991;52.028;5.526;2023-08-30T14:08:24;2.97;;;1.45;;
40288;SDS011;28991;52.028;5.526;2023-08-30T14:10:50;2.15;;;1.02;;
40288;SDS011;28991;52.028;5.526;2023-08-30T14:13:16;2.85;;;1.27;;
40288;SDS011;28991;52.028;5.526;2023-08-30T14:15:41;1.52;;;1.00;;
40288;SDS011;28991;52.028;5.526;2023-08-30T14:18:07;2.53;;;1.10;;
40288;SDS011;28991;52.028;5.526;2023-08-30T14:20:33;1.88;;;1.02;;
40288;SDS011;28991;52.028;5.526;2023-08-30T14:22:59;1.90;;;0.98;;
40288;SDS011;28991;52.028;5.526;2023-08-30T14:25:25;8.15;;;1.45;;
40288;SDS011;28991;52.028;5.526;2023-08-30T14:27:50;3.40;;;1.15;;
40288;SDS011;28991;52.028;5.526;2023-08-30T14:30:16;1.38;;;0.80;;
40288;SDS011;28991;52.028;5.526;2023-08-30T14:32:42;2.47;;;0.95;;
40288;SDS011;28991;52.028;5.526;2023-08-30T14:35:07;2.22;;;1.10;;
40288;SDS011;28991;52.028;5.526;2023-08-30T14:37:33;1.85;;;0.90;;
40288;SDS011;28991;52.028;5.526;2023-08-30T14:40:03;2.45;;;1.02;;
40288;SDS011;28991;52.028;5.526;2023-08-30T14:42:29;3.30;;;0.95;;
40288;SDS011;28991;52.028;5.526;2023-08-30T14:44:55;1.27;;;0.70;;
40288;SDS011;28991;52.028;5.526;2023-08-30T14:47:20;1.50;;;0.90;;
40288;SDS011;28991;52.028;5.526;2023-08-30T14:49:46;1.10;;;0.60;;
40288;SDS011;28991;52.028;5.526;2023-08-30T14:52:12;1.42;;;0.80;;
40288;SDS011;28991;52.028;5.526;2023-08-30T14:54:38;1.73;;;1.13;;
40288;SDS011;28991;52.028;5.526;2023-08-30T14:57:04;1.75;;;0.85;;